WXM80 ListenWXM80 Stop

You find our weather info also at:

UK Metoffice

WeatherCloud

Weather Underground

Northeastern Weather Network

AWEKAS

Citizen Weather Observer Program (CWOP)

HAMweather, WeatherForYou, PWS Weather


Weather Underground History page Text

Daily Summary for May 28, 2016 Units:  English    Metric   Both
« Previous Day
Next Day »
Daily Weekly Monthly Yearly Custom
  High: Low: Average:
Temperature: 93.5 °F 68.7 °F 78.8 °F
Dew Point: 73.7 °F 59.1 °F 65 °F
Humidity: 75 % 48 % 64 %
Wind Speed: 7.6 mph 0.0 mph 2.4 mph
Wind Gust: 12.7 mph - -
Wind:- - SSW
Pressure: 30.09 in 30.04 in -
Precipitation: 0.00 in    
Historical Graphs
 
 
Tabular Data for May 28, 2016
Time Temperature Dew Point Pressure Wind Wind Speed Wind Gust Humidity Rainfall Rate (Hourly)
00:03 70.0 °F 60.9 °F 30.04 in WSW 3.8 mph 5.8 mph 73 % 0.00 in
00:08 70.0 °F 61.3 °F 30.04 in West 2.0 mph 6.9 mph 74 % 0.00 in
00:13 70.1 °F 61.0 °F 30.04 in SSW 5.4 mph 10.4 mph 73 % 0.00 in
00:18 70.1 °F 61.0 °F 30.04 in SSW 1.8 mph 10.4 mph 73 % 0.00 in
00:23 70.2 °F 61.1 °F 30.04 in SSW 2.4 mph 6.0 mph 73 % 0.00 in
00:33 70.2 °F 61.1 °F 30.04 in SSW 2.3 mph 8.1 mph 73 % 0.00 in
00:38 70.2 °F 61.1 °F 30.04 in SSE 0.8 mph 9.2 mph 73 % 0.00 in
00:43 70.2 °F 61.1 °F 30.04 in SW 4.2 mph 11.0 mph 73 % 0.00 in
00:48 70.3 °F 61.2 °F 30.04 in SW 5.6 mph 8.1 mph 73 % 0.00 in
00:54 70.3 °F 61.2 °F 30.04 in WSW 1.4 mph 8.1 mph 73 % 0.00 in
00:59 70.3 °F 60.8 °F 30.04 in SW 5.1 mph 10.0 mph 72 % 0.00 in
01:04 70.3 °F 60.8 °F 30.04 in West 3.9 mph 8.1 mph 72 % 0.00 in
01:09 70.3 °F 60.8 °F 30.04 in SSW 2.5 mph 5.8 mph 72 % 0.00 in
01:14 70.3 °F 60.8 °F 30.04 in SW 4.8 mph 8.1 mph 72 % 0.00 in
01:19 70.4 °F 60.9 °F 30.04 in SW 5.0 mph 6.9 mph 72 % 0.00 in
01:24 70.3 °F 60.8 °F 30.04 in South 3.2 mph 5.0 mph 72 % 0.00 in
01:29 70.3 °F 60.8 °F 30.04 in South 1.6 mph 6.9 mph 72 % 0.00 in
01:34 70.3 °F 60.4 °F 30.04 in SW 1.3 mph 3.5 mph 71 % 0.00 in
01:39 70.2 °F 60.4 °F 30.04 in West 2.6 mph 5.8 mph 71 % 0.00 in
01:45 70.1 °F 60.3 °F 30.04 in SW 3.3 mph 5.0 mph 71 % 0.00 in
01:50 70.1 °F 60.3 °F 30.04 in WSW 1.8 mph 4.6 mph 71 % 0.00 in
01:55 70.0 °F 60.2 °F 30.05 in West 2.5 mph 6.9 mph 71 % 0.00 in
02:00 69.9 °F 60.1 °F 30.05 in SW 2.6 mph 5.8 mph 71 % 0.00 in
02:05 69.8 °F 60.0 °F 30.04 in SSW 2.1 mph 5.0 mph 71 % 0.00 in
02:10 69.8 °F 60.4 °F 30.04 in SW 2.4 mph 4.0 mph 72 % 0.00 in
02:15 69.7 °F 60.3 °F 30.04 in SW 3.4 mph 4.6 mph 72 % 0.00 in
02:20 69.7 °F 60.3 °F 30.04 in SSW 2.9 mph 4.6 mph 72 % 0.00 in
02:25 69.7 °F 60.3 °F 30.04 in SW 2.9 mph 9.2 mph 72 % 0.00 in
02:30 69.7 °F 60.3 °F 30.04 in WSW 3.5 mph 5.8 mph 72 % 0.00 in
02:36 69.7 °F 60.3 °F 30.04 in SSW 3.5 mph 5.8 mph 72 % 0.00 in
02:41 69.7 °F 60.3 °F 30.04 in SSW 1.4 mph 5.8 mph 72 % 0.00 in
02:51 69.7 °F 60.3 °F 30.04 in WSW 1.9 mph 8.0 mph 72 % 0.00 in
02:56 69.7 °F 59.9 °F 30.04 in WSW 2.0 mph 3.5 mph 71 % 0.00 in
03:06 69.6 °F 59.8 °F 30.04 in SW 3.5 mph 8.1 mph 71 % 0.00 in
03:11 69.6 °F 59.8 °F 30.04 in SSW 3.2 mph 4.6 mph 71 % 0.00 in
03:16 69.5 °F 59.7 °F 30.04 in SSW 3.7 mph 5.8 mph 71 % 0.00 in
03:21 69.5 °F 59.7 °F 30.04 in SW 4.1 mph 8.1 mph 71 % 0.00 in
03:37 69.2 °F 59.4 °F 30.04 in SW 3.7 mph 9.2 mph 71 % 0.00 in
03:42 69.2 °F 59.4 °F 30.04 in SSW 2.4 mph 6.0 mph 71 % 0.00 in
03:47 69.1 °F 59.3 °F 30.04 in SSW 2.0 mph 4.0 mph 71 % 0.00 in
03:52 69.1 °F 59.3 °F 30.04 in SW 3.5 mph 5.0 mph 71 % 0.00 in
03:57 69.1 °F 59.7 °F 30.04 in SSW 4.4 mph 6.9 mph 72 % 0.00 in
04:02 69.0 °F 59.6 °F 30.05 in SW 3.1 mph 5.8 mph 72 % 0.00 in
04:07 69.0 °F 59.6 °F 30.05 in SSW 4.0 mph 5.8 mph 72 % 0.00 in
04:12 69.0 °F 59.6 °F 30.05 in SSE 2.6 mph 8.1 mph 72 % 0.00 in
04:18 69.0 °F 59.6 °F 30.05 in SW 2.5 mph 5.8 mph 72 % 0.00 in
04:23 68.9 °F 59.5 °F 30.05 in SW 2.8 mph 4.6 mph 72 % 0.00 in
04:28 68.9 °F 59.5 °F 30.05 in SSW 1.9 mph 5.0 mph 72 % 0.00 in
04:33 68.8 °F 59.4 °F 30.05 in SW 1.8 mph 4.0 mph 72 % 0.00 in
04:38 68.8 °F 59.4 °F 30.05 in West 1.6 mph 3.5 mph 72 % 0.00 in
04:43 68.8 °F 59.4 °F 30.05 in SW 2.3 mph 6.9 mph 72 % 0.00 in
04:48 68.8 °F 59.4 °F 30.05 in SSW 2.7 mph 5.8 mph 72 % 0.00 in
04:53 68.8 °F 59.4 °F 30.05 in SSW 4.5 mph 6.9 mph 72 % 0.00 in
04:58 68.8 °F 59.4 °F 30.05 in SW 3.5 mph 6.9 mph 72 % 0.00 in
05:03 68.8 °F 59.4 °F 30.05 in SW 1.4 mph 4.0 mph 72 % 0.00 in
05:09 68.8 °F 59.8 °F 30.05 in SSW 2.0 mph 4.0 mph 73 % 0.00 in
05:14 68.8 °F 59.8 °F 30.05 in SW 1.9 mph 6.9 mph 73 % 0.00 in
05:19 68.8 °F 59.8 °F 30.06 in SSW 2.8 mph 6.9 mph 73 % 0.00 in
05:24 68.8 °F 59.8 °F 30.06 in SSW 2.0 mph 4.6 mph 73 % 0.00 in
05:29 68.8 °F 59.8 °F 30.06 in WSW 0.5 mph 4.6 mph 73 % 0.00 in
05:34 68.8 °F 59.8 °F 30.06 in SW 2.5 mph 5.0 mph 73 % 0.00 in
05:39 68.8 °F 59.8 °F 30.06 in SSW 1.3 mph 3.0 mph 73 % 0.00 in
05:44 68.8 °F 59.8 °F 30.06 in SW 3.6 mph 8.1 mph 73 % 0.00 in
05:49 68.7 °F 59.7 °F 30.07 in SW 4.8 mph 7.0 mph 73 % 0.00 in
05:54 68.7 °F 60.1 °F 30.07 in Calm   1.2 mph 74 % 0.00 in
06:00 68.7 °F 60.1 °F 30.07 in SSW 1.6 mph 4.0 mph 74 % 0.00 in
06:05 68.7 °F 60.1 °F 30.07 in WSW 3.9 mph 6.0 mph 74 % 0.00 in
06:10 68.7 °F 60.1 °F 30.07 in WSW 5.6 mph 11.0 mph 74 % 0.00 in
06:15 68.7 °F 60.1 °F 30.08 in SW 2.8 mph 5.8 mph 74 % 0.00 in
06:20 68.8 °F 60.2 °F 30.08 in SW 2.2 mph 5.8 mph 74 % 0.00 in
06:25 68.8 °F 60.6 °F 30.08 in SW 2.4 mph 5.8 mph 75 % 0.00 in
06:30 68.9 °F 60.6 °F 30.08 in SW 1.5 mph 2.3 mph 75 % 0.00 in
06:35 69.0 °F 60.7 °F 30.08 in SW 0.3 mph 1.2 mph 75 % 0.00 in
06:40 69.3 °F 61.0 °F 30.08 in SSW 2.6 mph 5.8 mph 75 % 0.00 in
06:45 69.5 °F 61.2 °F 30.08 in SW 1.6 mph 3.5 mph 75 % 0.00 in
06:51 69.7 °F 61.4 °F 30.08 in SW 0.5 mph 2.0 mph 75 % 0.00 in
06:56 70.1 °F 61.8 °F 30.08 in SW 0.6 mph 2.3 mph 75 % 0.00 in
07:01 70.3 °F 62.0 °F 30.08 in WSW 1.6 mph 2.3 mph 75 % 0.00 in
07:06 70.7 °F 62.0 °F 30.09 in WSW 2.5 mph 4.6 mph 74 % 0.00 in
07:11 71.1 °F 62.4 °F 30.08 in SSW 3.9 mph 5.8 mph 74 % 0.00 in
07:16 71.6 °F 62.5 °F 30.08 in WSW 2.7 mph 9.2 mph 73 % 0.00 in
07:21 71.9 °F 62.4 °F 30.08 in SSW 1.3 mph 5.8 mph 72 % 0.00 in
07:26 72.4 °F 63.3 °F 30.08 in SE 1.6 mph 3.5 mph 73 % 0.00 in
07:31 72.7 °F 63.1 °F 30.09 in WSW 2.0 mph 3.5 mph 72 % 0.00 in
07:36 73.0 °F 63.4 °F 30.09 in SW 2.2 mph 4.0 mph 72 % 0.00 in
07:42 73.2 °F 63.2 °F 30.09 in SW 2.9 mph 6.9 mph 71 % 0.00 in
07:57 73.6 °F 64.0 °F 30.08 in WSW 4.7 mph 6.9 mph 72 % 0.00 in
08:02 73.8 °F 63.8 °F 30.08 in SW 2.7 mph 5.8 mph 71 % 0.00 in
08:07 73.9 °F 63.9 °F 30.08 in WSW 3.6 mph 6.9 mph 71 % 0.00 in
08:12 74.1 °F 64.1 °F 30.08 in WSW 0.9 mph 3.5 mph 71 % 0.00 in
08:17 74.4 °F 64.8 °F 30.08 in SSW 3.5 mph 5.8 mph 72 % 0.00 in
08:22 74.6 °F 64.6 °F 30.08 in SSW 4.4 mph 6.9 mph 71 % 0.00 in
08:27 74.8 °F 64.8 °F 30.08 in SW 2.3 mph 4.6 mph 71 % 0.00 in
08:33 75.0 °F 65.4 °F 30.09 in WSW 4.5 mph 6.9 mph 72 % 0.00 in
08:38 75.3 °F 65.2 °F 30.08 in WSW 2.9 mph 5.8 mph 71 % 0.00 in
08:43 75.6 °F 65.5 °F 30.08 in WSW 1.6 mph 4.6 mph 71 % 0.00 in
08:48 75.9 °F 65.8 °F 30.08 in SSW 3.0 mph 5.8 mph 71 % 0.00 in
08:53 76.2 °F 66.1 °F 30.08 in WSW 3.7 mph 5.8 mph 71 % 0.00 in
09:03 76.9 °F 66.8 °F 30.09 in SW 0.5 mph 3.5 mph 71 % 0.00 in
09:08 77.2 °F 66.2 °F 30.09 in WNW 5.2 mph 7.0 mph 69 % 0.00 in
09:13 77.5 °F 66.5 °F 30.09 in SSW 2.5 mph 3.0 mph 69 % 0.00 in
09:18 77.8 °F 66.8 °F 30.08 in SW 2.7 mph 5.0 mph 69 % 0.00 in
09:24 78.2 °F 67.6 °F 30.09 in SW 3.1 mph 4.0 mph 70 % 0.00 in
09:29 78.6 °F 67.6 °F 30.09 in SW 0.3 mph 3.5 mph 69 % 0.00 in
09:34 79.1 °F 67.2 °F 30.08 in SW 2.1 mph 3.5 mph 67 % 0.00 in
09:39 79.7 °F 67.8 °F 30.09 in West 4.7 mph 8.1 mph 67 % 0.00 in
09:44 80.4 °F 68.4 °F 30.09 in SW 2.5 mph 4.6 mph 67 % 0.00 in
09:49 81.1 °F 69.5 °F 30.09 in West 2.8 mph 4.6 mph 68 % 0.00 in
09:54 81.9 °F 69.0 °F 30.09 in WSW 3.9 mph 5.0 mph 65 % 0.00 in
09:59 82.6 °F 68.7 °F 30.09 in SW 2.3 mph 3.5 mph 63 % 0.00 in
10:04 83.4 °F 69.5 °F 30.09 in WSW 1.9 mph 4.6 mph 63 % 0.00 in
10:09 84.0 °F 69.6 °F 30.09 in WNW 0.8 mph 3.5 mph 62 % 0.00 in
10:15 84.9 °F 71.8 °F 30.09 in WSW 0.5 mph 4.0 mph 65 % 0.00 in
10:20 85.8 °F 71.7 °F 30.09 in WNW 1.0 mph 4.0 mph 63 % 0.00 in
10:25 86.7 °F 71.2 °F 30.09 in West 1.0 mph 2.3 mph 60 % 0.00 in
10:30 87.3 °F 71.2 °F 30.09 in West 1.4 mph 3.5 mph 59 % 0.00 in
10:35 88.0 °F 71.4 °F 30.09 in SSW 2.0 mph 4.0 mph 58 % 0.00 in
10:40 88.3 °F 71.6 °F 30.08 in SW 2.4 mph 3.5 mph 58 % 0.00 in
10:45 88.7 °F 69.9 °F 30.08 in WSW 4.3 mph 6.9 mph 54 % 0.00 in
10:50 89.0 °F 70.7 °F 30.08 in WSW 1.3 mph 2.3 mph 55 % 0.00 in
10:55 89.3 °F 71.5 °F 30.08 in NW 2.3 mph 3.5 mph 56 % 0.00 in
11:00 89.5 °F 70.1 °F 30.08 in WNW 4.8 mph 6.9 mph 53 % 0.00 in
11:06 89.9 °F 71.6 °F 30.09 in West 2.1 mph 3.5 mph 55 % 0.00 in
11:11 90.1 °F 70.7 °F 30.08 in NW 2.3 mph 3.5 mph 53 % 0.00 in
11:16 90.2 °F 70.8 °F 30.08 in WNW 3.1 mph 5.0 mph 53 % 0.00 in
11:21 90.3 °F 70.8 °F 30.08 in SW 2.8 mph 4.6 mph 53 % 0.00 in
11:26 90.6 °F 73.3 °F 30.08 in SSW 0.8 mph 3.5 mph 57 % 0.00 in
11:31 91.2 °F 71.7 °F 30.09 in NW 2.9 mph 4.6 mph 53 % 0.00 in
11:36 91.6 °F 73.1 °F 30.09 in NW 0.4 mph 2.3 mph 55 % 0.00 in
11:41 91.9 °F 72.3 °F 30.09 in NNW 0.7 mph 1.2 mph 53 % 0.00 in
11:46 92.5 °F 72.9 °F 30.09 in WNW 2.0 mph 4.0 mph 53 % 0.00 in
11:51 92.6 °F 71.8 °F 30.08 in NW 2.9 mph 5.8 mph 51 % 0.00 in
11:57 92.7 °F 71.3 °F 30.08 in West 1.7 mph 5.0 mph 50 % 0.00 in
12:02 92.8 °F 73.2 °F 30.08 in NNE 1.3 mph 4.0 mph 53 % 0.00 in
12:07 93.2 °F 73.5 °F 30.08 in NW 2.8 mph 4.6 mph 53 % 0.00 in
12:12 93.4 °F 70.8 °F 30.08 in WSW 0.3 mph 2.3 mph 48 % 0.00 in
12:17 93.4 °F 73.7 °F 30.08 in ENE 1.2 mph 2.3 mph 53 % 0.00 in
12:22 93.5 °F 72.7 °F 30.08 in ENE 1.5 mph 4.6 mph 51 % 0.00 in
12:27 92.9 °F 71.5 °F 30.08 in ENE 1.2 mph 3.5 mph 50 % 0.00 in
12:32 92.4 °F 71.6 °F 30.07 in NE 1.6 mph 3.5 mph 51 % 0.00 in
12:37 91.4 °F 70.1 °F 30.07 in ENE 1.3 mph 3.5 mph 50 % 0.00 in
12:43 90.9 °F 72.5 °F 30.07 in North 3.3 mph 4.0 mph 55 % 0.00 in
12:53 91.5 °F 72.0 °F 30.07 in North 1.8 mph 3.5 mph 53 % 0.00 in
12:58 91.8 °F 73.3 °F 30.07 in ENE 1.9 mph 3.5 mph 55 % 0.00 in
13:03 91.9 °F 72.9 °F 30.07 in ENE 0.7 mph 1.2 mph 54 % 0.00 in
13:08 92.0 °F 73.0 °F 30.07 in NNE 1.6 mph 2.3 mph 54 % 0.00 in
13:13 92.4 °F 72.2 °F 30.07 in SE 0.9 mph 3.5 mph 52 % 0.00 in
13:18 92.8 °F 72.6 °F 30.06 in SSW 2.1 mph 3.5 mph 52 % 0.00 in
13:23 92.3 °F 71.0 °F 30.07 in SSE 1.2 mph 3.5 mph 50 % 0.00 in
13:28 91.9 °F 70.0 °F 30.06 in SE 7.6 mph 9.2 mph 49 % 0.00 in
13:34 91.3 °F 71.2 °F 30.07 in SSW 3.9 mph 5.8 mph 52 % 0.00 in
13:44 91.6 °F 70.9 °F 30.07 in SSE 1.6 mph 6.9 mph 51 % 0.00 in
13:49 91.8 °F 72.2 °F 30.07 in SSW 2.9 mph 4.0 mph 53 % 0.00 in
13:54 92.0 °F 71.3 °F 30.07 in SSE 0.5 mph 4.0 mph 51 % 0.00 in
13:59 92.0 °F 71.3 °F 30.07 in South 2.6 mph 6.9 mph 51 % 0.00 in
14:04 92.3 °F 72.1 °F 30.07 in SSW 2.6 mph 4.6 mph 52 % 0.00 in
14:09 92.6 °F 71.8 °F 30.07 in SW 2.4 mph 4.0 mph 51 % 0.00 in
14:14 92.1 °F 70.2 °F 30.06 in SSE 1.5 mph 10.4 mph 49 % 0.00 in
14:19 91.9 °F 71.8 °F 30.06 in SSW 2.6 mph 5.0 mph 52 % 0.00 in
14:25 91.7 °F 71.6 °F 30.06 in SSW 1.9 mph 3.5 mph 52 % 0.00 in
14:30 91.3 °F 70.6 °F 30.06 in WSW 2.6 mph 7.0 mph 51 % 0.00 in
14:35 91.3 °F 71.8 °F 30.06 in West 0.7 mph 6.9 mph 53 % 0.00 in
14:40 91.6 °F 70.9 °F 30.06 in SSW 2.3 mph 5.0 mph 51 % 0.00 in
14:45 91.8 °F 70.5 °F 30.06 in SSE 1.9 mph 4.6 mph 50 % 0.00 in
14:50 91.9 °F 72.3 °F 30.06 in SSE 2.9 mph 4.6 mph 53 % 0.00 in
14:55 91.5 °F 71.4 °F 30.05 in SSE 2.5 mph 4.6 mph 52 % 0.00 in
15:00 91.4 °F 71.9 °F 30.05 in WSW 2.1 mph 6.0 mph 53 % 0.00 in
15:05 91.5 °F 71.4 °F 30.05 in South 3.6 mph 10.4 mph 52 % 0.00 in
15:10 91.3 °F 70.6 °F 30.05 in SE 2.7 mph 6.9 mph 51 % 0.00 in
15:16 90.9 °F 70.8 °F 30.05 in SSW 1.9 mph 5.8 mph 52 % 0.00 in
15:21 90.7 °F 70.7 °F 30.05 in ESE 3.8 mph 10.0 mph 52 % 0.00 in
15:26 90.4 °F 70.9 °F 30.05 in South 1.6 mph 5.0 mph 53 % 0.00 in
15:31 90.0 °F 70.0 °F 30.05 in SSE 5.1 mph 11.5 mph 52 % 0.00 in
15:36 89.2 °F 69.8 °F 30.05 in South 1.4 mph 8.1 mph 53 % 0.00 in
15:41 88.5 °F 70.3 °F 30.05 in SE 3.5 mph 8.0 mph 55 % 0.00 in
15:46 88.3 °F 70.6 °F 30.05 in South 2.9 mph 7.0 mph 56 % 0.00 in
15:51 87.8 °F 70.1 °F 30.05 in SSW 2.6 mph 4.0 mph 56 % 0.00 in
15:56 87.3 °F 69.7 °F 30.05 in SSW 3.1 mph 7.0 mph 56 % 0.00 in
16:01 87.2 °F 69.6 °F 30.05 in SSW 1.9 mph 6.9 mph 56 % 0.00 in
16:07 87.0 °F 69.9 °F 30.05 in South 4.1 mph 5.8 mph 57 % 0.00 in
16:12 87.2 °F 70.6 °F 30.05 in SSW 3.8 mph 9.2 mph 58 % 0.00 in
16:17 87.4 °F 70.3 °F 30.05 in SE 2.9 mph 8.1 mph 57 % 0.00 in
16:22 87.5 °F 69.9 °F 30.05 in South 3.8 mph 8.1 mph 56 % 0.00 in
16:27 87.5 °F 69.9 °F 30.05 in SSW 2.2 mph 4.6 mph 56 % 0.00 in
16:32 87.3 °F 69.7 °F 30.05 in South 3.8 mph 6.9 mph 56 % 0.00 in
16:37 87.4 °F 70.3 °F 30.05 in SE 4.0 mph 12.7 mph 57 % 0.00 in
16:42 87.4 °F 70.3 °F 30.05 in South 4.0 mph 5.8 mph 57 % 0.00 in
16:47 87.4 °F 69.3 °F 30.05 in SW 3.2 mph 8.1 mph 55 % 0.00 in
16:52 87.3 °F 69.7 °F 30.05 in SSW 1.0 mph 3.5 mph 56 % 0.00 in
17:03 86.9 °F 69.3 °F 30.05 in SSE 1.8 mph 6.9 mph 56 % 0.00 in
17:08 86.6 °F 69.0 °F 30.05 in SSW 3.5 mph 6.9 mph 56 % 0.00 in
17:13 86.3 °F 68.2 °F 30.05 in SW 4.3 mph 10.4 mph 55 % 0.00 in
17:18 85.9 °F 68.9 °F 30.05 in SSW 2.0 mph 7.0 mph 57 % 0.00 in
17:23 85.6 °F 68.1 °F 30.05 in SSW 1.0 mph 4.6 mph 56 % 0.00 in
17:28 85.1 °F 68.2 °F 30.05 in SSW 2.1 mph 4.6 mph 57 % 0.00 in
17:33 84.8 °F 67.9 °F 30.05 in South 1.6 mph 4.0 mph 57 % 0.00 in
17:38 84.5 °F 68.1 °F 30.05 in SSW 4.7 mph 8.0 mph 58 % 0.00 in
17:43 84.2 °F 67.8 °F 30.05 in South 3.0 mph 5.8 mph 58 % 0.00 in
17:49 84.0 °F 68.1 °F 30.05 in SSW 3.5 mph 9.2 mph 59 % 0.00 in
17:54 83.8 °F 67.4 °F 30.05 in South 4.0 mph 6.9 mph 58 % 0.00 in
17:59 83.4 °F 67.6 °F 30.05 in SW 2.6 mph 5.8 mph 59 % 0.00 in
18:04 83.1 °F 66.8 °F 30.05 in SSW 2.0 mph 5.8 mph 58 % 0.00 in
18:14 82.5 °F 66.7 °F 30.04 in SSW 5.3 mph 7.0 mph 59 % 0.00 in
18:19 82.2 °F 66.4 °F 30.04 in SSW 2.5 mph 5.8 mph 59 % 0.00 in
18:24 81.8 °F 66.6 °F 30.05 in South 3.6 mph 9.0 mph 60 % 0.00 in
18:29 81.4 °F 66.2 °F 30.05 in South 2.5 mph 6.9 mph 60 % 0.00 in
18:34 81.0 °F 66.3 °F 30.05 in SSW 2.6 mph 3.5 mph 61 % 0.00 in
18:40 80.7 °F 66.0 °F 30.05 in SSW 2.4 mph 4.0 mph 61 % 0.00 in
18:45 80.4 °F 66.2 °F 30.05 in ESE 5.9 mph 9.2 mph 62 % 0.00 in
18:50 80.1 °F 65.9 °F 30.05 in South 2.4 mph 4.6 mph 62 % 0.00 in
18:55 79.9 °F 65.7 °F 30.05 in South 1.7 mph 3.5 mph 62 % 0.00 in
19:00 79.6 °F 65.0 °F 30.05 in South 2.4 mph 4.6 mph 61 % 0.00 in
19:01 79.5 °F 64.9 °F 30.05 in South 1.4 mph 4.6 mph 61 % 0.00 in
19:06 79.3 °F 65.1 °F 30.05 in WSW 2.3 mph 4.0 mph 62 % 0.00 in
19:11 79.0 °F 64.4 °F 30.06 in SE 2.2 mph 8.1 mph 61 % 0.00 in
19:16 78.8 °F 64.2 °F 30.06 in Calm   2.3 mph 61 % 0.00 in
19:21 78.6 °F 63.6 °F 30.06 in SW 2.5 mph 4.0 mph 60 % 0.00 in
19:26 78.4 °F 63.8 °F 30.06 in SSW 0.7 mph 3.5 mph 61 % 0.00 in
19:31 78.1 °F 63.6 °F 30.05 in South 1.1 mph 5.8 mph 61 % 0.00 in
19:36 77.8 °F 62.8 °F 30.05 in SSW 2.3 mph 5.8 mph 60 % 0.00 in
19:39 77.6 °F 63.1 °F 30.05 in SSW 1.3 mph 2.3 mph 61 % 0.00 in
19:44 77.4 °F 62.9 °F 30.05 in South 1.1 mph 3.0 mph 61 % 0.00 in
19:49 77.1 °F 62.6 °F 30.05 in SSE 1.8 mph 3.5 mph 61 % 0.00 in
19:54 76.9 °F 62.4 °F 30.05 in SSW 2.2 mph 3.5 mph 61 % 0.00 in
19:59 76.7 °F 62.2 °F 30.05 in SSW 1.8 mph 3.5 mph 61 % 0.00 in
20:04 76.5 °F 62.0 °F 30.06 in South 0.6 mph 3.5 mph 61 % 0.00 in
20:10 76.3 °F 62.3 °F 30.06 in South 1.6 mph 4.0 mph 62 % 0.00 in
20:15 76.1 °F 62.1 °F 30.06 in WSW 0.6 mph 3.5 mph 62 % 0.00 in
20:25 75.8 °F 61.8 °F 30.06 in West 2.1 mph 6.0 mph 62 % 0.00 in
20:30 75.7 °F 61.8 °F 30.07 in SW 1.0 mph 3.0 mph 62 % 0.00 in
20:35 75.5 °F 61.6 °F 30.07 in WSW 1.6 mph 6.0 mph 62 % 0.00 in
20:40 75.4 °F 61.5 °F 30.07 in SW 0.9 mph 2.3 mph 62 % 0.00 in
20:45 75.3 °F 61.8 °F 30.07 in SSW 1.4 mph 2.3 mph 63 % 0.00 in
20:50 75.2 °F 61.7 °F 30.07 in WSW 2.6 mph 4.6 mph 63 % 0.00 in
20:55 75.1 °F 61.6 °F 30.07 in WSW 2.5 mph 9.2 mph 63 % 0.00 in
21:01 75.1 °F 61.6 °F 30.07 in WSW 3.4 mph 9.2 mph 63 % 0.00 in
21:06 75.0 °F 61.5 °F 30.07 in WSW 1.4 mph 5.0 mph 63 % 0.00 in
21:11 75.0 °F 61.5 °F 30.08 in SW 1.1 mph 3.5 mph 63 % 0.00 in
21:16 74.9 °F 61.5 °F 30.08 in West 1.5 mph 3.5 mph 63 % 0.00 in
21:21 74.8 °F 61.4 °F 30.08 in SW 2.6 mph 4.0 mph 63 % 0.00 in
21:26 74.8 °F 61.4 °F 30.07 in SW 0.8 mph 3.5 mph 63 % 0.00 in
21:31 74.7 °F 61.3 °F 30.08 in SW 2.5 mph 5.8 mph 63 % 0.00 in
21:36 74.7 °F 61.3 °F 30.08 in SSW 2.3 mph 3.5 mph 63 % 0.00 in
21:41 74.7 °F 61.3 °F 30.08 in SSW 0.9 mph 3.5 mph 63 % 0.00 in
21:46 74.6 °F 61.2 °F 30.08 in SSW 0.9 mph 3.5 mph 63 % 0.00 in
21:52 74.6 °F 61.2 °F 30.08 in SW 0.9 mph 3.5 mph 63 % 0.00 in
21:57 74.6 °F 61.2 °F 30.08 in WSW 1.3 mph 3.5 mph 63 % 0.00 in
22:02 74.7 °F 61.3 °F 30.08 in WSW 0.2 mph 4.6 mph 63 % 0.00 in
22:07 74.7 °F 61.3 °F 30.08 in SW 1.5 mph 3.5 mph 63 % 0.00 in
22:12 74.8 °F 61.4 °F 30.09 in WSW 3.4 mph 5.0 mph 63 % 0.00 in
22:17 74.8 °F 61.4 °F 30.09 in WSW 2.1 mph 3.5 mph 63 % 0.00 in
22:22 74.8 °F 61.8 °F 30.09 in WSW 1.6 mph 3.5 mph 64 % 0.00 in
22:27 74.9 °F 61.9 °F 30.09 in WSW 1.5 mph 6.9 mph 64 % 0.00 in
22:32 74.9 °F 61.9 °F 30.09 in WNW 2.2 mph 3.5 mph 64 % 0.00 in
22:37 74.9 °F 61.9 °F 30.09 in WSW 0.9 mph 2.3 mph 64 % 0.00 in
22:43 75.0 °F 62.0 °F 30.09 in SW 1.9 mph 4.6 mph 64 % 0.00 in
22:48 75.0 °F 62.0 °F 30.09 in SW 3.4 mph 4.6 mph 64 % 0.00 in
22:53 75.0 °F 62.0 °F 30.09 in SSW 3.0 mph 5.8 mph 64 % 0.00 in
22:58 75.1 °F 62.1 °F 30.09 in WSW 2.1 mph 4.0 mph 64 % 0.00 in
23:03 75.1 °F 62.1 °F 30.09 in WSW 1.3 mph 5.0 mph 64 % 0.00 in
23:08 75.1 °F 62.1 °F 30.09 in West 0.6 mph 2.3 mph 64 % 0.00 in
23:13 75.0 °F 62.0 °F 30.09 in SW 1.2 mph 3.5 mph 64 % 0.00 in
23:18 75.0 °F 62.0 °F 30.09 in SW 0.9 mph 2.0 mph 64 % 0.00 in
23:23 74.9 °F 61.5 °F 30.09 in SW 1.5 mph 4.0 mph 63 % 0.00 in
23:28 74.9 °F 61.9 °F 30.09 in WSW 0.3 mph 3.5 mph 64 % 0.00 in
23:34 74.8 °F 61.4 °F 30.09 in South 3.4 mph 6.0 mph 63 % 0.00 in
23:39 74.7 °F 60.8 °F 30.09 in SSW 5.2 mph 11.5 mph 62 % 0.00 in
23:44 74.6 °F 60.7 °F 30.09 in SSW 3.6 mph 6.9 mph 62 % 0.00 in
23:49 74.5 °F 60.2 °F 30.09 in SSW 3.9 mph 5.8 mph 61 % 0.00 in
23:54 74.4 °F 59.6 °F 30.09 in SSW 3.0 mph 5.0 mph 60 % 0.00 in
23:59 74.4 °F 59.1 °F 30.09 in SW 4.6 mph 9.2 mph 59 % 0.00 in
Crab Meadow Weather
Compliments of Weather Underground - 3 mb

Script developed by  Jim McMurry - jmcmurry@mwt.net Adapted for the template by  Wim van der Kuil - Leuven-Template.eu

Recycling: A used aluminum can is recycled and back on the grocery shelf as a new can, in as little as 60 days.